Time;durP1;ratioP1;P1;durP2;ratioP2;P2;SDS_P1;SDS_P2;PMS_P1;PMS_P2;Temp;Humidity;BMP_temperature;BMP_pressure;BME280_temperature;BME280_humidity;BME280_pressure;Samples;Min_cycle;Max_cycle;Signal;HPM_P1;HPM_P2
2022/07/07 00:00:15;;;;;;;5.10;4.58;;;;;;;13.01;74.84;97576.07;1731945;82;27453;-74
2022/07/07 00:02:44;;;;;;;7.42;4.87;;;;;;;13.00;74.87;97562.21;1731586;82;26278;-75
2022/07/07 00:05:11;;;;;;;8.15;5.42;;;;;;;12.99;74.84;97572.22;1731935;82;25690;-75
2022/07/07 00:07:38;;;;;;;7.90;5.42;;;;;;;12.92;74.94;97570.63;1731885;82;25678;-77
2022/07/07 00:10:05;;;;;;;7.53;5.17;;;;;;;12.81;74.97;97574.04;1732032;82;25738;-76
2022/07/07 00:12:32;;;;;;;7.00;5.50;;;;;;;12.73;75.15;97577.03;1731796;82;27547;-75
2022/07/07 00:14:59;;;;;;;6.90;5.50;;;;;;;12.74;75.33;97576.81;1731594;82;25682;-75
2022/07/07 00:17:26;;;;;;;7.05;5.10;;;;;;;12.73;75.39;97563.49;1731778;82;25677;-75
2022/07/07 00:19:52;;;;;;;6.00;4.55;;;;;;;12.72;75.45;97553.70;1731843;82;25732;-75
2022/07/07 00:22:19;;;;;;;11.48;5.40;;;;;;;12.73;75.50;97546.72;1731810;82;25701;-77
2022/07/07 00:24:45;;;;;;;6.55;4.65;;;;;;;12.74;75.38;97548.90;1732040;82;28164;-75
2022/07/07 00:27:12;;;;;;;7.00;4.42;;;;;;;12.73;75.35;97552.66;1731848;82;25701;-75
2022/07/07 00:29:39;;;;;;;7.90;4.85;;;;;;;12.73;75.29;97541.82;1731773;82;25777;-75
2022/07/07 00:32:06;;;;;;;7.85;4.92;;;;;;;12.67;75.18;97541.37;1732008;82;25835;-75
2022/07/07 00:34:33;;;;;;;5.55;4.70;;;;;;;12.63;75.25;97539.62;1732037;82;25794;-75
2022/07/07 00:37:00;;;;;;;12.05;4.72;;;;;;;12.57;75.22;97535.07;1731856;82;27368;-76
2022/07/07 00:39:27;;;;;;;5.87;5.25;;;;;;;12.43;75.22;97537.08;1732027;82;25722;-75
2022/07/07 00:41:54;;;;;;;5.25;4.75;;;;;;;12.32;75.41;97536.95;1731945;82;25753;-75
2022/07/07 00:44:22;;;;;;;7.37;5.78;;;;;;;12.28;75.73;97529.79;1731850;82;25725;-74
2022/07/07 00:46:53;;;;;;;6.60;5.30;;;;;;;12.24;75.74;97530.74;1732208;82;25713;-76
2022/07/07 00:49:20;;;;;;;10.25;5.17;;;;;;;12.28;75.90;97532.50;1732354;82;28196;-76
2022/07/07 00:51:47;;;;;;;7.05;4.90;;;;;;;12.33;75.87;97529.94;1731843;82;25711;-73
2022/07/07 00:54:14;;;;;;;7.47;4.47;;;;;;;12.34;75.84;97530.25;1731949;82;25786;-75
2022/07/07 00:56:41;;;;;;;8.15;4.55;;;;;;;12.33;75.82;97528.59;1732086;82;25752;-75
2022/07/07 00:59:08;;;;;;;7.60;4.37;;;;;;;12.30;75.72;97534.47;1732036;82;25736;-77
2022/07/07 01:01:41;;;;;;;5.53;4.58;;;;;;;12.23;75.67;97530.44;1731902;82;27119;-77
2022/07/07 01:04:11;;;;;;;8.83;4.62;;;;;;;12.14;75.74;97535.81;1732048;82;25765;-74
2022/07/07 01:06:39;;;;;;;6.75;4.60;;;;;;;12.13;75.94;97530.09;1731846;82;25798;-75
2022/07/07 01:09:06;;;;;;;7.35;4.85;;;;;;;12.14;75.90;97532.27;1731695;82;25691;-75
2022/07/07 01:11:54;;;;;;;6.30;5.03;;;;;;;12.14;75.85;97530.92;1731961;82;25516;-75
2022/07/07 01:14:24;;;;;;;6.17;4.60;;;;;;;12.12;75.89;97535.19;1731873;82;27489;-76
2022/07/07 01:16:52;;;;;;;8.35;4.45;;;;;;;12.13;75.92;97529.27;1731876;82;25701;-75
2022/07/07 01:19:20;;;;;;;10.48;4.70;;;;;;;12.14;75.91;97528.22;1732133;82;26433;-74
2022/07/07 01:22:03;;;;;;;5.17;4.37;;;;;;;12.14;75.82;97525.51;1731862;82;25929;-77
2022/07/07 01:24:30;;;;;;;4.33;3.92;;;;;;;12.09;75.76;97530.21;1680745;85;26867;-75
2022/07/07 01:27:16;;;;;;;4.22;3.83;;;;;;;11.99;75.81;97524.97;1681357;85;27368;-75
2022/07/07 01:29:46;;;;;;;6.97;3.87;;;;;;;12.00;75.83;97530.69;1678757;85;25857;-75
2022/07/07 01:32:14;;;;;;;4.65;4.15;;;;;;;12.00;75.75;97537.45;1681379;85;25338;-73
2022/07/07 01:34:44;;;;;;;6.12;4.20;;;;;;;11.99;75.71;97535.27;1681353;85;25784;-75
2022/07/07 01:37:11;;;;;;;7.85;4.78;;;;;;;11.92;75.71;97536.37;1680918;85;25839;-75
2022/07/07 01:39:40;;;;;;;10.63;4.15;;;;;;;11.86;75.83;97532.12;1660012;85;28155;-75
2022/07/07 01:42:07;;;;;;;6.72;3.95;;;;;;;11.85;75.88;97541.27;1649137;86;25827;-74
2022/07/07 01:44:37;;;;;;;6.28;4.20;;;;;;;11.84;75.72;97542.31;1649266;86;25763;-75
2022/07/07 01:47:06;;;;;;;5.00;3.87;;;;;;;11.81;75.72;97536.02;1649169;86;25842;-75
2022/07/07 01:49:33;;;;;;;7.45;3.77;;;;;;;11.79;75.63;97538.09;1649491;86;26071;-77
2022/07/07 01:52:02;;;;;;;4.95;3.45;;;;;;;11.76;75.61;97533.11;1649263;86;27382;-75
2022/07/07 01:54:30;;;;;;;11.03;3.60;;;;;;;11.73;75.61;97538.91;1649105;85;25832;-75
2022/07/07 01:56:57;;;;;;;7.12;4.33;;;;;;;11.72;75.58;97529.14;1649396;86;25822;-75
2022/07/07 01:59:24;;;;;;;7.87;3.35;;;;;;;11.69;75.49;97529.59;1649140;86;25820;-75
2022/07/07 02:01:51;;;;;;;6.75;4.33;;;;;;;11.65;75.52;97527.00;1649232;86;25423;-77
2022/07/07 02:04:18;;;;;;;8.00;4.20;;;;;;;11.63;75.41;97530.95;1649143;86;27395;-75
2022/07/07 02:06:44;;;;;;;7.03;3.87;;;;;;;11.57;75.47;97531.31;1649114;86;25826;-75
2022/07/07 02:09:11;;;;;;;5.08;3.72;;;;;;;11.54;75.44;97524.97;1649316;86;25892;-74
2022/07/07 02:11:38;;;;;;;10.88;3.92;;;;;;;11.52;75.51;97520.30;1649174;86;25784;-75
2022/07/07 02:14:06;;;;;;;4.10;3.70;;;;;;;11.50;75.51;97519.67;1649004;86;25805;-77
2022/07/07 02:16:33;;;;;;;7.42;3.47;;;;;;;11.46;75.54;97517.95;1649006;86;27343;-76
2022/07/07 02:19:03;;;;;;;5.78;3.67;;;;;;;11.45;75.50;97524.91;1649108;86;25827;-75
2022/07/07 02:21:30;;;;;;;9.08;4.10;;;;;;;11.40;75.52;97516.59;1666090;85;25771;-76
2022/07/07 02:23:58;;;;;;;8.25;3.98;;;;;;;11.35;75.60;97524.53;1684633;85;25828;-75
2022/07/07 02:26:25;;;;;;;5.00;4.20;;;;;;;11.33;75.62;97517.98;1686917;85;25738;-74
2022/07/07 02:28:53;;;;;;;5.17;3.95;;;;;;;11.33;75.70;97517.16;1687014;84;27426;-74
2022/07/07 02:31:20;;;;;;;4.72;3.92;;;;;;;11.34;75.76;97517.47;1686883;84;25730;-75
2022/07/07 02:33:47;;;;;;;4.28;3.75;;;;;;;11.30;75.72;97506.77;1687042;84;25735;-75
2022/07/07 02:36:13;;;;;;;6.40;3.75;;;;;;;11.34;75.67;97509.36;1686886;85;25758;-74
2022/07/07 02:38:40;;;;;;;6.70;3.87;;;;;;;11.34;75.64;97512.90;1687203;85;25707;-74
2022/07/07 02:41:09;;;;;;;5.87;4.20;;;;;;;11.31;75.59;97506.56;1686889;85;27442;-78
2022/07/07 02:43:36;;;;;;;4.95;3.77;;;;;;;11.25;75.57;97502.52;1686896;84;25790;-75
2022/07/07 02:46:03;;;;;;;8.20;3.80;;;;;;;11.17;75.67;97508.99;1686901;84;25509;-77
2022/07/07 02:48:30;;;;;;;8.93;4.30;;;;;;;11.17;75.81;97508.47;1687183;85;25759;-77
2022/07/07 02:50:57;;;;;;;6.10;3.70;;;;;;;11.19;75.85;97509.61;1687144;85;25829;-78
2022/07/07 02:53:24;;;;;;;4.67;4.15;;;;;;;11.19;75.75;97509.61;1687208;85;28012;-75
2022/07/07 02:55:50;;;;;;;5.62;4.10;;;;;;;11.15;75.81;97506.50;1687026;85;26417;-76
2022/07/07 02:58:22;;;;;;;12.18;3.87;;;;;;;11.11;75.90;97512.52;1687161;85;25743;-78
2022/07/07 03:00:49;;;;;;;5.12;4.03;;;;;;;11.11;75.99;97512.52;1687106;84;25712;-75
2022/07/07 03:03:16;;;;;;;6.90;3.65;;;;;;;11.11;75.99;97509.30;1695886;83;25800;-75
2022/07/07 03:05:43;;;;;;;7.53;4.28;;;;;;;11.13;76.03;97508.58;1717227;83;27397;-75
2022/07/07 03:08:10;;;;;;;6.85;4.22;;;;;;;11.11;76.06;97503.07;1717252;83;25851;-77
2022/07/07 03:10:37;;;;;;;7.72;3.70;;;;;;;11.11;76.12;97509.83;1717289;83;25774;-77
2022/07/07 03:13:04;;;;;;;7.80;4.47;;;;;;;11.11;76.25;97507.95;1717408;83;25745;-75
2022/07/07 03:15:31;;;;;;;4.67;3.60;;;;;;;11.15;76.26;97507.84;1717097;83;25703;-74
2022/07/07 03:17:58;;;;;;;8.08;3.80;;;;;;;11.17;76.30;97508.99;1717331;83;28414;-74
2022/07/07 03:23:09;;;;;;;7.58;3.80;;;;;;;11.24;76.47;97510.30;1874237;76;25628;-76
2022/07/07 03:25:35;;;;;;;6.78;4.08;;;;;;;11.22;76.44;97513.77;1845328;77;25663;-76
2022/07/07 03:28:02;;;;;;;6.62;3.77;;;;;;;11.23;76.41;97518.13;1845585;77;28119;-74
2022/07/07 03:30:28;;;;;;;10.13;4.12;;;;;;;11.26;76.45;97506.36;1845156;77;25682;-76
2022/07/07 03:32:55;;;;;;;6.37;4.35;;;;;;;11.33;76.37;97509.05;1845141;77;25692;-74
2022/07/07 03:35:22;;;;;;;7.53;4.33;;;;;;;11.34;76.37;97504.79;1845455;77;25686;-73
2022/07/07 03:37:48;;;;;;;4.33;3.92;;;;;;;11.38;76.50;97505.17;1845471;77;26630;-75
2022/07/07 03:40:15;;;;;;;8.18;5.03;;;;;;;11.41;76.60;97507.45;1845709;76;27329;-77
2022/07/07 03:42:42;;;;;;;9.20;5.47;;;;;;;11.42;76.63;97509.94;1845251;77;25745;-74
2022/07/07 03:45:09;;;;;;;6.90;4.25;;;;;;;11.45;76.64;97502.77;1845594;77;25742;-74
2022/07/07 03:47:36;;;;;;;6.10;4.47;;;;;;;11.47;76.75;97504.70;1845518;77;25714;-73
2022/07/07 03:50:04;;;;;;;6.97;4.80;;;;;;;11.51;76.77;97508.66;1845577;77;25766;-74
2022/07/07 03:52:30;;;;;;;6.05;4.85;;;;;;;11.51;76.84;97502.41;1845736;77;27596;-74
2022/07/07 03:54:57;;;;;;;6.28;4.90;;;;;;;11.54;76.94;97508.75;1845352;77;25439;-74
2022/07/07 03:57:24;;;;;;;6.47;5.33;;;;;;;11.58;76.92;97504.59;1845487;77;25666;-73
2022/07/07 03:59:50;;;;;;;12.50;4.85;;;;;;;11.58;76.99;97501.05;1845505;77;25666;-74
2022/07/07 04:02:17;;;;;;;9.93;5.37;;;;;;;11.59;76.97;97502.19;1845644;77;25686;-75
2022/07/07 04:04:43;;;;;;;8.35;5.45;;;;;;;11.62;77.02;97492.80;1845338;77;26734;-74
2022/07/07 04:07:10;;;;;;;8.23;5.15;;;;;;;11.65;77.02;97492.37;1845476;77;25824;-74
2022/07/07 04:09:37;;;;;;;12.28;5.65;;;;;;;11.65;76.97;97489.66;1845492;77;25603;-73
2022/07/07 04:12:05;;;;;;;7.58;6.12;;;;;;;11.67;76.95;97492.98;1845401;77;25620;-74
2022/07/07 04:14:32;;;;;;;10.03;6.33;;;;;;;11.68;77.00;97483.31;1845415;77;25639;-74
2022/07/07 04:16:59;;;;;;;9.53;5.67;;;;;;;11.68;77.09;97479.26;1845326;77;27350;-74
2022/07/07 04:19:25;;;;;;;6.22;5.15;;;;;;;11.61;77.00;97477.09;1845095;77;25722;-75
2022/07/07 04:21:52;;;;;;;7.05;5.53;;;;;;;11.63;77.14;97484.47;1845163;77;25585;-73
2022/07/07 04:24:18;;;;;;;8.00;5.72;;;;;;;11.65;77.09;97486.44;1845318;77;25698;-74
2022/07/07 04:26:45;;;;;;;8.05;6.42;;;;;;;11.65;77.16;97476.98;1845284;77;25667;-73
2022/07/07 04:29:12;;;;;;;6.35;5.33;;;;;;;11.65;77.18;97474.80;1845392;77;27357;-74
2022/07/07 04:31:43;;;;;;;7.42;5.25;;;;;;;11.65;77.27;97476.98;1844999;77;25719;-74
2022/07/07 04:34:07;;;;;;;8.80;5.87;;;;;;;11.69;77.29;97482.27;1840070;77;25698;-74
2022/07/07 04:36:33;;;;;;;9.10;5.78;;;;;;;11.74;77.33;97475.67;1844981;77;25897;-74
2022/07/07 04:39:00;;;;;;;8.88;6.58;;;;;;;11.80;77.41;97472.14;1844881;77;25668;-74
2022/07/07 04:41:27;;;;;;;9.13;6.05;;;;;;;11.85;77.48;97466.89;1844749;77;28179;-73
2022/07/07 04:43:53;;;;;;;11.55;6.33;;;;;;;11.92;77.56;97480.91;1844820;77;25631;-74
2022/07/07 04:46:20;;;;;;;8.85;6.28;;;;;;;11.96;77.59;97480.24;1844661;77;25708;-75
2022/07/07 04:48:47;;;;;;;6.25;5.75;;;;;;;12.01;77.56;97487.19;1844431;77;26338;-73
2022/07/07 04:51:14;;;;;;;9.63;6.20;;;;;;;12.04;77.67;97481.88;1844401;77;25275;-74
2022/07/07 04:53:40;;;;;;;8.23;6.12;;;;;;;12.09;77.70;97488.80;1844894;77;28005;-73
2022/07/07 04:56:07;;;;;;;11.28;6.90;;;;;;;12.13;77.73;97491.38;1844572;77;25821;-74
2022/07/07 04:58:34;;;;;;;9.70;6.83;;;;;;;12.15;77.74;97487.41;1844727;77;25692;-73
2022/07/07 05:01:01;;;;;;;8.70;6.55;;;;;;;12.22;77.80;97494.95;1844606;77;25852;-74
2022/07/07 05:03:27;;;;;;;7.95;5.97;;;;;;;12.24;77.85;97496.08;1844848;77;25709;-74
2022/07/07 05:05:54;;;;;;;10.53;6.45;;;;;;;12.32;77.83;97501.22;1844688;77;27347;-74
2022/07/07 05:08:21;;;;;;;6.22;5.65;;;;;;;12.40;77.73;97494.20;1844472;77;25739;-74
2022/07/07 05:10:47;;;;;;;8.03;6.05;;;;;;;12.42;77.73;97492.10;1844674;77;25688;-74
2022/07/07 05:13:14;;;;;;;10.53;5.53;;;;;;;12.46;77.75;97485.17;1844811;77;25653;-74
2022/07/07 05:15:41;;;;;;;6.50;5.50;;;;;;;12.53;77.88;97487.84;1844617;77;25694;-74
2022/07/07 05:18:07;;;;;;;11.18;5.70;;;;;;;12.59;77.75;97483.70;1844557;77;27467;-74
2022/07/07 05:20:34;;;;;;;10.82;5.35;;;;;;;12.67;77.60;97484.50;1844567;77;25700;-74
2022/07/07 05:23:01;;;;;;;9.85;6.12;;;;;;;12.74;77.47;97475.25;1844546;77;25680;-75
2022/07/07 05:25:27;;;;;;;12.50;6.60;;;;;;;12.81;77.36;97477.87;1844682;77;25927;-74
2022/07/07 05:27:54;;;;;;;8.18;5.87;;;;;;;12.88;77.25;97477.30;1844718;77;25714;-74
2022/07/07 05:30:21;;;;;;;9.15;5.70;;;;;;;12.94;77.25;97477.22;1845037;77;27359;-74
2022/07/07 05:32:47;;;;;;;9.93;5.97;;;;;;;13.02;77.16;97469.34;1844613;77;25781;-74
2022/07/07 05:35:14;;;;;;;10.75;6.45;;;;;;;13.08;77.08;97469.78;1844549;77;25768;-75
2022/07/07 05:37:41;;;;;;;6.90;5.72;;;;;;;13.14;77.17;97464.00;1844643;77;25651;-74
2022/07/07 05:40:09;;;;;;;7.90;5.95;;;;;;;13.21;77.36;97461.53;1844832;77;25749;-74
2022/07/07 05:42:36;;;;;;;7.87;6.33;;;;;;;13.27;77.27;97464.70;1844748;76;28147;-74
2022/07/07 05:45:03;;;;;;;6.53;5.78;;;;;;;13.34;77.30;97464.08;1844545;77;25687;-75
2022/07/07 05:47:30;;;;;;;11.12;6.15;;;;;;;13.43;77.32;97459.70;1844707;77;25754;-74
2022/07/07 05:49:56;;;;;;;6.97;6.22;;;;;;;13.51;77.43;97466.19;1844645;77;25698;-74
2022/07/07 05:52:23;;;;;;;6.97;5.90;;;;;;;13.56;77.63;97458.17;1844738;77;25745;-74
2022/07/07 05:54:49;;;;;;;6.17;5.47;;;;;;;13.61;77.56;97456.44;1844875;77;27183;-74
2022/07/07 05:57:16;;;;;;;7.10;6.30;;;;;;;13.70;77.43;97456.94;1844509;77;25762;-74
2022/07/07 05:59:42;;;;;;;8.28;6.37;;;;;;;13.77;77.31;97456.31;1844765;77;25766;-75
2022/07/07 06:02:09;;;;;;;6.28;5.60;;;;;;;13.84;77.29;97453.52;1844773;77;26470;-74
2022/07/07 06:04:36;;;;;;;5.80;5.30;;;;;;;13.92;77.12;97452.66;1844818;77;25679;-74
2022/07/07 06:07:03;;;;;;;7.42;5.03;;;;;;;13.99;77.02;97442.55;1844668;77;27407;-75
2022/07/07 06:09:29;;;;;;;8.05;4.67;;;;;;;14.09;76.81;97441.97;1844652;77;25738;-75
2022/07/07 06:11:56;;;;;;;6.03;4.33;;;;;;;14.18;76.88;97445.17;1844691;77;25647;-74
2022/07/07 06:14:23;;;;;;;7.12;4.90;;;;;;;14.28;76.77;97446.25;1844495;77;25756;-74
2022/07/07 06:16:49;;;;;;;9.80;5.87;;;;;;;14.37;76.40;97441.29;1844517;77;25838;-75
2022/07/07 06:19:16;;;;;;;5.95;4.60;;;;;;;14.46;76.14;97441.30;1844601;77;28092;-74
2022/07/07 06:21:42;;;;;;;7.40;4.85;;;;;;;14.55;75.74;97435.80;1844095;77;25781;-75
2022/07/07 06:24:09;;;;;;;6.50;4.78;;;;;;;14.64;75.58;97435.73;1844593;77;25691;-74
2022/07/07 06:26:36;;;;;;;7.95;5.00;;;;;;;14.74;75.36;97437.85;1844518;77;25950;-75
2022/07/07 06:29:03;;;;;;;4.95;4.28;;;;;;;14.83;75.12;97436.45;1844709;77;25773;-74
2022/07/07 06:31:30;;;;;;;8.50;4.90;;;;;;;14.92;75.46;97431.47;1844590;77;27531;-74
2022/07/07 06:33:57;;;;;;;5.75;4.58;;;;;;;15.03;75.48;97423.84;1844421;77;25664;-74
2022/07/07 06:36:24;;;;;;;7.97;4.83;;;;;;;15.12;75.36;97421.86;1844586;77;25779;-75
2022/07/07 06:38:50;;;;;;;4.70;4.30;;;;;;;15.23;75.15;97428.86;1839208;77;25717;-74
2022/07/07 06:41:17;;;;;;;7.67;4.20;;;;;;;15.32;74.83;97428.27;1844679;77;25664;-74
2022/07/07 06:43:43;;;;;;;4.72;4.30;;;;;;;15.42;74.41;97430.37;1844605;77;26875;-74
2022/07/07 06:46:10;;;;;;;9.08;4.70;;;;;;;15.50;74.22;97418.56;1844685;77;25687;-75
2022/07/07 06:48:36;;;;;;;6.50;4.85;;;;;;;15.60;73.92;97423.93;1844714;77;26351;-74
2022/07/07 06:51:03;;;;;;;5.28;4.03;;;;;;;15.70;74.09;97424.13;1844638;77;25620;-74
2022/07/07 06:53:30;;;;;;;6.35;4.10;;;;;;;15.80;73.54;97421.61;1844286;77;25903;-75
2022/07/07 06:55:56;;;;;;;7.12;4.30;;;;;;;15.88;73.52;97423.93;1844415;77;27412;-74
2022/07/07 06:58:23;;;;;;;3.60;3.30;;;;;;;15.98;73.24;97415.94;1844479;77;25672;-74
2022/07/07 07:00:50;;;;;;;5.05;3.40;;;;;;;16.08;72.81;97416.65;1844577;77;25732;-75
2022/07/07 07:03:16;;;;;;;7.22;3.87;;;;;;;16.17;72.58;97418.75;1844626;77;25645;-74
2022/07/07 07:05:43;;;;;;;4.42;3.33;;;;;;;16.30;72.10;97419.49;1844661;77;25700;-74
2022/07/07 07:08:09;;;;;;;4.17;3.27;;;;;;;16.39;71.81;97412.02;1844518;77;27369;-75
2022/07/07 07:10:36;;;;;;;6.20;3.65;;;;;;;16.49;71.52;97414.90;1844529;77;25701;-74
2022/07/07 07:13:03;;;;;;;7.87;3.77;;;;;;;16.58;71.26;97403.03;1844580;77;26436;-73
2022/07/07 07:15:29;;;;;;;4.15;3.72;;;;;;;16.69;71.11;97403.50;1844694;77;25665;-75
2022/07/07 07:17:56;;;;;;;4.75;3.95;;;;;;;16.80;71.05;97403.94;1844624;77;25760;-74
2022/07/07 07:20:22;;;;;;;4.37;3.47;;;;;;;16.93;71.02;97402.22;1844655;77;28073;-74
2022/07/07 07:22:49;;;;;;;3.60;3.30;;;;;;;17.06;70.67;97393.38;1846443;77;25729;-74
2022/07/07 07:25:17;;;;;;;6.20;2.92;;;;;;;17.20;70.84;97406.93;1850265;77;25755;-74
2022/07/07 07:27:44;;;;;;;3.85;2.77;;;;;;;17.33;70.41;97397.00;1850516;76;26244;-74
2022/07/07 07:30:14;;;;;;;4.42;3.65;;;;;;;17.47;69.87;97390.62;1846492;77;25731;-75
2022/07/07 07:32:40;;;;;;;4.35;3.77;;;;;;;17.62;70.36;97394.36;1850335;77;27430;-74
2022/07/07 07:35:07;;;;;;;4.12;3.37;;;;;;;17.75;70.40;97389.60;1850521;77;25734;-74
2022/07/07 07:37:34;;;;;;;3.92;3.08;;;;;;;17.89;70.27;97388.08;1850530;76;25280;-74
2022/07/07 07:40:00;;;;;;;3.52;2.90;;;;;;;18.00;70.29;97377.53;1850501;76;25725;-75
2022/07/07 07:42:27;;;;;;;5.87;3.35;;;;;;;18.16;70.13;97376.59;1850535;77;25740;-76
2022/07/07 07:45:12;;;;;;;4.50;3.30;;;;;;;18.29;69.61;97374.80;1847770;77;27356;-76
2022/07/07 07:47:43;;;;;;;6.20;3.20;;;;;;;18.42;69.42;97375.44;1850556;77;25678;-76
2022/07/07 07:50:12;;;;;;;3.90;3.50;;;;;;;18.59;69.33;97370.14;1850653;77;25699;-77
2022/07/07 07:52:41;;;;;;;4.37;3.85;;;;;;;18.77;69.44;97370.23;1850593;77;25830;-75
2022/07/07 07:55:10;;;;;;;3.27;2.98;;;;;;;18.96;68.82;97381.00;1850508;77;25671;-76
2022/07/07 07:57:37;;;;;;;5.85;3.08;;;;;;;19.04;67.63;97375.05;1850516;77;27437;-77
2022/07/07 08:00:07;;;;;;;3.30;2.85;;;;;;;19.20;67.64;97378.65;1850398;77;25718;-76
2022/07/07 08:02:34;;;;;;;3.92;2.85;;;;;;;19.47;67.25;97378.48;1850527;77;25734;-77
2022/07/07 08:05:01;;;;;;;7.97;3.15;;;;;;;19.57;66.19;97371.70;1850623;77;26152;-76
2022/07/07 08:07:28;;;;;;;4.08;2.55;;;;;;;19.78;65.93;97374.79;1850765;76;25272;-76
2022/07/07 08:09:54;;;;;;;3.55;2.42;;;;;;;20.25;65.96;97372.91;1850783;77;27532;-76
2022/07/07 08:12:21;;;;;;;2.87;2.52;;;;;;;20.77;65.77;97367.15;1850736;77;25653;-76
2022/07/07 08:14:47;;;;;;;2.50;2.30;;;;;;;21.25;64.07;97374.45;1850787;77;25692;-76
2022/07/07 08:17:14;;;;;;;5.95;3.52;;;;;;;21.86;61.22;97366.70;1850848;77;25473;-77
2022/07/07 08:19:41;;;;;;;5.05;2.55;;;;;;;21.86;61.22;97366.70;1850906;77;25660;-76
2022/07/07 08:22:07;;;;;;;2.98;2.30;;;;;;;22.21;61.26;97369.80;1850758;77;26731;-77
2022/07/07 08:24:34;;;;;;;4.60;2.45;;;;;;;22.57;60.09;97362.89;1844768;77;25707;-77
2022/07/07 08:27:00;;;;;;;3.12;2.20;;;;;;;22.52;59.78;97367.61;1844909;77;25602;-77
2022/07/07 08:29:27;;;;;;;2.62;1.90;;;;;;;22.67;59.38;97361.15;1845055;77;25650;-77
2022/07/07 08:31:54;;;;;;;3.42;1.72;;;;;;;22.83;58.54;97364.02;1844468;77;25386;-77
2022/07/07 08:34:20;;;;;;;2.80;2.00;;;;;;;23.14;57.40;97354.34;1844845;77;27996;-77
2022/07/07 08:36:47;;;;;;;6.60;1.92;;;;;;;23.53;57.68;97360.23;1844596;77;25498;-77
2022/07/07 08:39:14;;;;;;;3.02;1.67;;;;;;;23.92;56.49;97360.75;1844919;77;25723;-76
2022/07/07 08:41:43;;;;;;;2.83;1.65;;;;;;;23.88;55.82;97356.98;1845028;77;26161;-79
2022/07/07 08:44:10;;;;;;;1.85;1.67;;;;;;;23.62;54.91;97355.69;1844973;77;25761;-76
2022/07/07 08:46:37;;;;;;;5.62;2.00;;;;;;;23.57;54.15;97355.75;1844882;77;27541;-76
2022/07/07 08:49:03;;;;;;;4.78;1.75;;;;;;;23.58;53.28;97358.77;1844925;77;25747;-78
2022/07/07 08:51:31;;;;;;;3.02;1.85;;;;;;;23.58;52.58;97356.83;1844966;77;25921;-77
2022/07/07 08:54:00;;;;;;;2.40;1.50;;;;;;;23.51;52.15;97356.95;1844851;77;26182;-78
2022/07/07 08:56:28;;;;;;;3.15;1.77;;;;;;;23.31;52.24;97347.78;1844841;77;25731;-77
2022/07/07 08:58:54;;;;;;;6.25;1.70;;;;;;;23.06;51.64;97345.36;1845041;77;28083;-77
2022/07/07 09:01:21;;;;;;;5.47;1.95;;;;;;;22.88;51.84;97345.54;1844857;77;25181;-77
2022/07/07 09:03:48;;;;;;;2.22;1.72;;;;;;;22.76;52.19;97338.80;1845128;77;25676;-76
2022/07/07 09:06:15;;;;;;;6.03;2.00;;;;;;;22.62;52.45;97346.32;1844779;77;25679;-78
2022/07/07 09:09:01;;;;;;;;;;;;;;;;;;;;;
2022/07/07 09:11:30;;;;;;;3.87;1.82;;;;;;;22.87;51.02;97348.58;1731178;82;27418;-77
2022/07/07 09:14:13;;;;;;;3.20;1.62;;;;;;;23.02;50.60;97347.60;1696768;84;25698;-78
2022/07/07 09:16:40;;;;;;;4.45;1.60;;;;;;;23.29;50.17;97345.90;1637231;87;25786;-77
2022/07/07 09:19:20;;;;;;;1.67;1.52;;;;;;;23.60;50.15;97340.83;1637230;87;25790;-76
2022/07/07 09:21:47;;;;;;;5.42;2.02;;;;;;;24.08;50.39;97338.48;1636133;87;25843;-76
2022/07/07 09:24:15;;;;;;;2.62;1.55;;;;;;;24.50;48.72;97344.45;1637017;86;27693;-76
2022/07/07 09:26:45;;;;;;;1.72;1.60;;;;;;;24.47;48.04;97340.34;1637362;87;25697;-77
2022/07/07 09:29:18;;;;;;;4.25;1.60;;;;;;;24.65;48.03;97337.25;1637343;87;25822;-78
2022/07/07 09:32:04;;;;;;;2.25;1.57;;;;;;;24.75;47.29;97337.88;1637258;87;25815;-76
2022/07/07 09:34:35;;;;;;;2.85;1.60;;;;;;;24.54;46.88;97335.23;1637289;87;25951;-78
2022/07/07 09:39:55;;;;;;;3.25;1.57;;;;;;;24.56;45.99;97331.63;1618496;87;25850;-74
2022/07/07 09:42:26;;;;;;;3.00;1.77;;;;;;;24.48;46.27;97342.55;1637245;87;25960;-77
2022/07/07 09:45:11;;;;;;;3.22;1.55;;;;;;;24.55;45.63;97331.36;1637541;87;25739;-76
2022/07/07 09:47:37;;;;;;;6.42;1.50;;;;;;;24.51;45.04;97326.77;1637265;87;26446;-75
2022/07/07 09:50:12;;;;;;;2.27;1.72;;;;;;;24.55;44.72;97326.41;1659037;86;28437;-74
2022/07/07 09:52:43;;;;;;;2.60;1.67;;;;;;;24.61;44.51;97327.97;1667836;86;25851;-75
2022/07/07 09:55:11;;;;;;;3.90;1.80;;;;;;;24.81;43.95;97326.77;1690200;84;26648;-77
2022/07/07 09:57:40;;;;;;;7.47;1.72;;;;;;;24.92;43.74;97330.97;1690246;84;25712;-77
2022/07/07 10:00:09;;;;;;;3.92;1.70;;;;;;;24.85;43.55;97322.28;1690157;84;25727;-75
2022/07/07 10:02:37;;;;;;;3.87;1.70;;;;;;;24.77;43.63;97327.92;1690217;84;27659;-77
2022/07/07 10:05:06;;;;;;;2.35;1.70;;;;;;;24.69;43.45;97328.64;1690157;84;25732;-76
2022/07/07 10:07:35;;;;;;;2.20;1.45;;;;;;;24.63;43.25;97321.03;1709144;81;25744;-76
2022/07/07 10:10:12;;;;;;;5.10;1.98;;;;;;;24.87;43.05;97322.80;1750448;81;25809;-75
2022/07/07 10:12:44;;;;;;;1.70;1.60;;;;;;;25.04;43.07;97324.41;1749939;81;25881;-78
2022/07/07 10:15:11;;;;;;;1.82;1.12;;;;;;;25.14;42.63;97325.58;1747059;81;27445;-77
2022/07/07 10:17:42;;;;;;;3.47;1.42;;;;;;;25.20;42.12;97320.22;1750105;81;25883;-76
2022/07/07 10:20:11;;;;;;;2.87;1.50;;;;;;;25.15;41.55;97324.45;1750449;81;25748;-80
2022/07/07 10:22:38;;;;;;;4.10;2.58;;;;;;;25.01;41.37;97322.25;1750206;81;25822;-78
2022/07/07 10:25:10;;;;;;;7.22;2.83;;;;;;;24.81;41.22;97321.24;1750090;81;25730;-76
2022/07/07 10:27:44;;;;;;;3.67;1.82;;;;;;;24.68;41.37;97319.53;1750382;81;27402;-76
2022/07/07 10:30:33;;;;;;;2.67;1.72;;;;;;;24.78;41.33;97313.82;1750082;81;25719;-78
2022/07/07 10:33:01;;;;;;;1.67;1.50;;;;;;;24.90;41.50;97316.08;1750284;81;25796;-79
2022/07/07 10:35:28;;;;;;;1.40;1.30;;;;;;;24.90;41.48;97315.26;1725748;81;26033;-79
2022/07/07 10:37:57;;;;;;;2.98;1.32;;;;;;;24.90;41.63;97318.02;1745317;81;26014;-76
2022/07/07 10:40:28;;;;;;;5.50;1.92;;;;;;;24.72;41.76;97313.67;1735983;81;27577;-77
2022/07/07 10:43:24;;;;;;;1.53;1.43;;;;;;;24.50;42.85;97316.86;1721292;83;25744;-76
2022/07/07 10:45:54;;;;;;;1.80;1.67;;;;;;;24.29;42.68;97313.61;1721482;83;25687;-77
2022/07/07 10:51:22;;;;;;;2.87;1.70;;;;;;;24.13;42.66;97318.55;1718309;83;25826;-76
2022/07/07 10:54:10;;;;;;;2.15;1.57;;;;;;;24.04;42.94;97314.25;1728746;82;28275;-76
2022/07/07 10:56:59;;;;;;;3.27;1.95;;;;;;;24.02;43.14;97311.56;1728616;81;25790;-77
2022/07/07 10:59:28;;;;;;;1.90;1.57;;;;;;;24.09;42.85;97304.27;1728466;81;25772;-79
2022/07/07 11:02:09;;;;;;;3.22;1.95;;;;;;;24.25;43.14;97302.94;1729209;82;25699;-77
2022/07/07 11:07:17;;;;;;;4.05;1.60;;;;;;;25.16;42.57;97293.52;1666078;86;27406;-78
2022/07/07 11:10:05;;;;;;;8.55;3.65;;;;;;;25.70;41.86;97295.41;1665727;85;25866;-78
2022/07/07 11:12:39;;;;;;;4.40;3.08;;;;;;;25.92;41.18;97294.05;1665859;85;25438;-76
2022/07/07 11:15:25;;;;;;;7.47;1.90;;;;;;;25.95;40.38;97285.70;1666104;85;26172;-78
2022/07/07 11:18:00;;;;;;;5.92;1.77;;;;;;;26.17;40.15;97294.83;1666076;86;25507;-80
2022/07/07 11:20:30;;;;;;;4.37;3.00;;;;;;;26.46;39.71;97290.79;1666048;85;27414;-76
2022/07/07 11:23:12;;;;;;;7.83;2.22;;;;;;;26.66;39.23;97286.12;1582724;90;25817;-77
2022/07/07 11:25:41;;;;;;;4.03;1.57;;;;;;;26.83;39.12;97277.88;1582831;89;25445;-80
2022/07/07 11:28:09;;;;;;;2.80;1.55;;;;;;;26.98;38.53;97284.16;1604989;88;25593;-77
2022/07/07 11:30:41;;;;;;;5.67;1.72;;;;;;;27.04;38.34;97272.63;1620072;88;25306;-75
2022/07/07 11:33:09;;;;;;;2.98;1.75;;;;;;;27.21;38.30;97274.63;1620368;88;27267;-77
2022/07/07 11:35:40;;;;;;;1.60;1.40;;;;;;;27.23;37.51;97272.35;1620213;88;25555;-76
2022/07/07 11:38:11;;;;;;;2.85;1.55;;;;;;;27.09;36.97;97275.23;1620181;88;25736;-78
2022/07/07 11:40:42;;;;;;;2.33;1.40;;;;;;;26.90;37.53;97276.05;1620237;88;26095;-78
2022/07/07 11:43:24;;;;;;;3.52;1.75;;;;;;;26.71;37.49;97277.66;1620527;88;25841;-76
2022/07/07 11:45:51;;;;;;;2.90;1.87;;;;;;;26.27;37.81;97274.94;1620496;88;27526;-76
2022/07/07 11:48:38;;;;;;;4.40;1.70;;;;;;;26.02;37.93;97277.78;1668727;84;25804;-76
2022/07/07 11:51:06;;;;;;;2.58;1.70;;;;;;;25.79;38.14;97274.18;1703416;82;25674;-76